Time;durP1;ratioP1;P1;durP2;ratioP2;P2;SDS_P1;SDS_P2;PMS_P1;PMS_P2;Temp;Humidity;BMP_temperature;BMP_pressure;BME280_temperature;BME280_humidity;BME280_pressure;Samples;Min_cycle;Max_cycle;Signal;HPM_P1;HPM_P2
2021/01/08 00:01:08;;;;;;;22.55;9.05;;;14.80;99.90;;;;;;5033133;28;20042;-60
2021/01/08 00:03:39;;;;;;;20.17;8.15;;;14.80;99.90;;;;;;5031201;28;20065;-60
2021/01/08 00:06:06;;;;;;;18.98;7.60;;;14.80;99.90;;;;;;5027917;28;20057;-60
2021/01/08 00:08:33;;;;;;;31.63;9.38;;;14.90;99.90;;;;;;5047505;28;20483;-60
2021/01/08 00:11:01;;;;;;;18.95;7.05;;;14.90;99.90;;;;;;5031829;28;20076;-60
2021/01/08 00:13:28;;;;;;;23.73;8.20;;;14.90;99.90;;;;;;5032152;28;20065;-60
2021/01/08 00:15:55;;;;;;;25.50;9.30;;;14.90;99.90;;;;;;5031540;28;20049;-60
2021/01/08 00:18:22;;;;;;;28.92;8.88;;;14.90;99.90;;;;;;5030990;28;20132;-60
2021/01/08 00:20:52;;;;;;;24.15;8.85;;;14.90;99.90;;;;;;5032638;28;20514;-60
2021/01/08 00:23:19;;;;;;;23.00;7.07;;;14.90;99.90;;;;;;5032410;28;20052;-60
2021/01/08 00:25:52;;;;;;;30.02;10.45;;;14.90;99.90;;;;;;5029513;28;20053;-60
2021/01/08 00:28:19;;;;;;;34.90;8.23;;;14.90;99.90;;;;;;5031998;28;20441;-60
2021/01/08 00:30:46;;;;;;;24.75;8.75;;;14.90;99.90;;;;;;5029699;28;20141;-60
2021/01/08 00:33:13;;;;;;;24.08;7.60;;;14.90;99.90;;;;;;5032555;28;20133;-60
2021/01/08 00:35:41;;;;;;;15.77;7.85;;;15.00;99.90;;;;;;5032557;28;20132;-60
2021/01/08 00:38:08;;;;;;;20.95;7.63;;;14.90;99.90;;;;;;5031430;28;20053;-60
2021/01/08 00:40:36;;;;;;;32.38;9.30;;;14.90;99.90;;;;;;5031903;28;20064;-60
2021/01/08 00:43:05;;;;;;;23.42;7.78;;;14.90;99.90;;;;;;5032547;28;20483;-60
2021/01/08 00:45:32;;;;;;;27.02;8.43;;;14.90;99.90;;;;;;5047248;28;20052;-60
2021/01/08 00:47:59;;;;;;;20.58;6.95;;;14.90;99.90;;;;;;5032297;28;20050;-60
2021/01/08 00:50:27;;;;;;;24.92;7.97;;;15.00;99.90;;;;;;5031789;28;20045;-60
2021/01/08 00:52:54;;;;;;;33.03;8.48;;;14.90;99.90;;;;;;5032514;28;20096;-60
2021/01/08 00:55:22;;;;;;;26.67;8.55;;;15.00;99.90;;;;;;5031657;28;20103;-60
2021/01/08 00:58:01;;;;;;;20.80;6.95;;;14.90;99.90;;;;;;5031191;28;20215;-60
2021/01/08 01:00:28;;;;;;;22.00;7.10;;;15.00;99.90;;;;;;5032832;28;20057;-60
2021/01/08 01:02:55;;;;;;;26.73;9.18;;;15.00;99.90;;;;;;5035906;28;20064;-60
2021/01/08 01:05:22;;;;;;;22.83;7.18;;;14.90;99.90;;;;;;5035437;28;20073;-60
2021/01/08 01:07:50;;;;;;;24.98;7.95;;;15.00;99.90;;;;;;5036030;28;20136;-60
2021/01/08 01:10:17;;;;;;;30.75;9.13;;;15.00;99.90;;;;;;5035087;28;20365;-60
2021/01/08 01:12:45;;;;;;;27.08;8.65;;;15.00;99.90;;;;;;5035622;28;20084;-60
2021/01/08 01:15:17;;;;;;;40.67;10.10;;;14.90;99.90;;;;;;5034299;28;20056;-60
2021/01/08 01:17:44;;;;;;;20.50;8.55;;;15.00;99.90;;;;;;5034796;28;20053;-60
2021/01/08 01:20:12;;;;;;;35.63;9.98;;;14.90;99.90;;;;;;5034091;28;20046;-60
2021/01/08 01:22:39;;;;;;;22.48;8.57;;;14.90;99.90;;;;;;5014787;28;20053;-60
2021/01/08 01:25:08;;;;;;;24.20;8.77;;;14.90;99.90;;;;;;5032287;28;20049;-60
2021/01/08 01:27:38;;;;;;;29.75;9.05;;;14.90;99.90;;;;;;5034148;28;20052;-60
2021/01/08 01:30:07;;;;;;;25.45;8.35;;;14.90;99.90;;;;;;5035155;28;20049;-60
2021/01/08 01:32:35;;;;;;;26.73;7.55;;;14.90;99.90;;;;;;5035280;28;20577;-60
2021/01/08 01:35:02;;;;;;;25.55;6.78;;;14.90;99.90;;;;;;5034782;28;20049;-60
2021/01/08 01:37:31;;;;;;;20.92;6.85;;;14.90;99.90;;;;;;5034166;28;20695;-58
2021/01/08 01:39:58;;;;;;;23.40;7.38;;;14.90;99.90;;;;;;5034951;28;20049;-60
2021/01/08 01:42:25;;;;;;;22.55;7.68;;;14.90;99.90;;;;;;5016653;28;20056;-60
2021/01/08 01:44:52;;;;;;;27.20;7.72;;;14.90;99.90;;;;;;5020698;28;20046;-60
2021/01/08 01:47:21;;;;;;;18.55;7.25;;;14.90;99.90;;;;;;5032874;28;20056;-60
2021/01/08 01:49:48;;;;;;;27.67;8.77;;;14.90;99.90;;;;;;4995552;28;20049;-60
2021/01/08 01:52:16;;;;;;;24.38;7.97;;;14.90;99.90;;;;;;5018126;28;20041;-60
2021/01/08 01:54:44;;;;;;;24.15;8.23;;;14.90;99.90;;;;;;5018961;28;20526;-60
2021/01/08 01:57:11;;;;;;;15.13;6.85;;;14.90;99.90;;;;;;5031417;28;20088;-60
2021/01/08 01:59:38;;;;;;;21.08;8.13;;;14.90;99.90;;;;;;5011028;28;20045;-60
2021/01/08 02:02:22;;;;;;;25.33;6.55;;;14.90;99.90;;;;;;5001844;28;20145;-60
2021/01/08 02:04:52;;;;;;;27.27;8.70;;;14.80;99.90;;;;;;5002874;28;20587;-59
2021/01/08 02:07:20;;;;;;;23.35;9.25;;;14.80;99.90;;;;;;5032356;28;20376;-60
2021/01/08 02:09:49;;;;;;;21.05;7.03;;;14.90;99.90;;;;;;5028260;28;20117;-59
2021/01/08 02:12:17;;;;;;;25.75;9.00;;;14.90;99.90;;;;;;5017642;28;20108;-60
2021/01/08 02:14:46;;;;;;;17.33;6.53;;;14.90;99.90;;;;;;5020154;28;20081;-60
2021/01/08 02:17:15;;;;;;;28.63;8.07;;;14.90;99.90;;;;;;5031354;28;20107;-60
2021/01/08 02:20:00;;;;;;;48.22;7.05;;;14.80;99.90;;;;;;5010747;28;20144;-59
2021/01/08 02:23:14;;;;;;;34.08;8.52;;;14.80;99.90;;;;;;5014887;28;20049;-59
2021/01/08 02:25:42;;;;;;;30.90;8.18;;;14.80;99.90;;;;;;5007343;28;20137;-60
2021/01/08 02:28:24;;;;;;;19.98;7.10;;;14.70;99.90;;;;;;4997001;28;20133;-60
2021/01/08 02:30:52;;;;;;;23.30;9.38;;;14.70;99.90;;;;;;5022893;28;20045;-58
2021/01/08 02:33:21;;;;;;;27.90;9.55;;;14.70;99.90;;;;;;5032408;28;20080;-58
2021/01/08 02:35:50;;;;;;;28.73;7.47;;;14.70;99.90;;;;;;4988368;28;20487;-60
2021/01/08 02:38:20;;;;;;;22.95;8.70;;;14.70;99.90;;;;;;5014907;28;20372;-60
2021/01/08 02:40:49;;;;;;;28.13;8.75;;;14.70;99.90;;;;;;5020847;28;20065;-60
2021/01/08 02:43:23;;;;;;;26.15;8.90;;;14.60;99.90;;;;;;5033380;28;20504;-60
2021/01/08 02:45:51;;;;;;;24.38;8.85;;;14.60;99.90;;;;;;5032460;28;20057;-59
2021/01/08 02:48:19;;;;;;;20.48;6.95;;;14.60;99.90;;;;;;5032126;28;20492;-58
2021/01/08 02:50:47;;;;;;;31.73;7.30;;;14.60;99.90;;;;;;5031929;28;20471;-58
2021/01/08 02:53:16;;;;;;;23.25;7.60;;;14.60;99.90;;;;;;5032283;28;20100;-58
2021/01/08 02:55:56;;;;;;;18.92;7.50;;;14.50;99.90;;;;;;5033723;28;20073;-58
2021/01/08 02:58:25;;;;;;;24.00;7.43;;;14.60;99.90;;;;;;5033223;28;20123;-58
2021/01/08 03:00:53;;;;;;;25.35;8.00;;;14.60;99.90;;;;;;5032352;28;20048;-58
2021/01/08 03:03:22;;;;;;;16.70;6.20;;;14.60;99.90;;;;;;5033120;28;20557;-58
2021/01/08 03:05:49;;;;;;;19.10;6.88;;;14.60;99.90;;;;;;5032537;28;20122;-58
2021/01/08 03:08:17;;;;;;;40.75;7.50;;;14.60;99.90;;;;;;5031829;28;20080;-60
2021/01/08 03:10:44;;;;;;;18.90;6.75;;;14.60;99.90;;;;;;5032282;28;20056;-60
2021/01/08 03:13:14;;;;;;;18.67;6.68;;;14.50;99.90;;;;;;5031984;28;20184;-60
2021/01/08 03:15:41;;;;;;;26.15;6.50;;;14.60;99.90;;;;;;5032918;28;20049;-58
2021/01/08 03:18:09;;;;;;;19.65;7.93;;;14.60;99.90;;;;;;5032092;28;20092;-58
2021/01/08 03:20:36;;;;;;;16.77;6.53;;;14.60;99.90;;;;;;5032916;28;20046;-58
2021/01/08 03:23:04;;;;;;;27.20;8.38;;;14.60;99.90;;;;;;5032864;28;20057;-57
2021/01/08 03:25:31;;;;;;;20.67;6.85;;;14.60;99.90;;;;;;5033030;28;20056;-57
2021/01/08 03:27:59;;;;;;;21.58;7.03;;;14.60;99.90;;;;;;5033470;28;20052;-57
2021/01/08 03:30:26;;;;;;;21.83;6.88;;;14.60;99.90;;;;;;5032498;28;20502;-58
2021/01/08 03:32:53;;;;;;;17.20;7.93;;;14.60;99.90;;;;;;5032172;28;20050;-58
2021/01/08 03:35:20;;;;;;;22.10;7.15;;;14.70;99.90;;;;;;5032788;28;20132;-58
2021/01/08 03:37:48;;;;;;;18.08;6.13;;;14.70;99.90;;;;;;5032315;28;20097;-58
2021/01/08 03:40:15;;;;;;;18.17;6.53;;;14.70;99.90;;;;;;5032731;28;20391;-59
2021/01/08 03:42:42;;;;;;;22.60;9.43;;;14.70;99.90;;;;;;5031878;28;20057;-58
2021/01/08 03:45:09;;;;;;;19.75;6.53;;;14.70;99.90;;;;;;5032842;28;20053;-58
2021/01/08 03:47:37;;;;;;;16.65;6.47;;;14.70;99.90;;;;;;5031977;28;20140;-58
2021/01/08 03:50:04;;;;;;;17.23;7.00;;;14.70;99.90;;;;;;5031127;28;20053;-60
2021/01/08 03:52:31;;;;;;;18.02;7.72;;;14.70;99.90;;;;;;5031523;28;20069;-60
2021/01/08 03:54:59;;;;;;;22.63;6.50;;;14.70;99.90;;;;;;5031413;28;20054;-60
2021/01/08 03:57:26;;;;;;;18.85;7.47;;;14.70;99.90;;;;;;5032754;28;20084;-60
2021/01/08 03:59:53;;;;;;;21.85;8.07;;;14.60;99.90;;;;;;5032534;28;20128;-60
2021/01/08 04:02:20;;;;;;;21.17;7.10;;;14.60;99.90;;;;;;5032511;28;20049;-58
2021/01/08 04:04:47;;;;;;;24.40;8.18;;;14.50;99.90;;;;;;5032438;28;20097;-60
2021/01/08 04:07:15;;;;;;;22.15;7.70;;;14.50;99.90;;;;;;5032910;28;20426;-60
2021/01/08 04:09:42;;;;;;;21.27;7.97;;;14.50;99.90;;;;;;5011509;28;20049;-60
2021/01/08 04:12:09;;;;;;;26.58;7.72;;;14.50;99.90;;;;;;5028631;28;20053;-60
2021/01/08 04:14:36;;;;;;;23.52;7.63;;;14.50;99.90;;;;;;5032426;28;20061;-60
2021/01/08 04:17:03;;;;;;;19.98;6.80;;;14.40;99.90;;;;;;5031521;28;20073;-60
2021/01/08 04:19:31;;;;;;;22.45;9.23;;;14.40;99.90;;;;;;5031997;28;20456;-60
2021/01/08 04:21:58;;;;;;;27.02;7.22;;;14.40;99.90;;;;;;5032833;28;20128;-59
2021/01/08 04:24:25;;;;;;;17.20;7.70;;;14.40;99.90;;;;;;5031735;28;20052;-60
2021/01/08 04:26:53;;;;;;;29.73;7.65;;;14.40;99.90;;;;;;5031495;28;20129;-61
2021/01/08 04:29:20;;;;;;;24.52;7.05;;;14.50;99.90;;;;;;5031998;28;20121;-60
2021/01/08 04:31:47;;;;;;;19.15;7.22;;;14.40;99.90;;;;;;5032712;28;20530;-59
2021/01/08 04:34:15;;;;;;;26.50;8.13;;;14.50;99.90;;;;;;5033144;28;20050;-61
2021/01/08 04:36:42;;;;;;;35.92;8.23;;;14.40;99.90;;;;;;5036538;28;20053;-60
2021/01/08 04:39:09;;;;;;;26.90;8.80;;;14.40;99.90;;;;;;5034946;28;20045;-60
2021/01/08 04:41:37;;;;;;;19.35;8.77;;;14.40;99.90;;;;;;5036059;28;20061;-60
2021/01/08 04:44:05;;;;;;;26.77;8.30;;;14.40;99.90;;;;;;5035688;28;20132;-59
2021/01/08 04:46:35;;;;;;;22.90;7.63;;;14.40;99.90;;;;;;5035912;28;20468;-60
2021/01/08 04:49:05;;;;;;;25.35;7.45;;;14.40;99.90;;;;;;5035984;28;20492;-60
2021/01/08 04:51:37;;;;;;;25.85;6.60;;;14.40;99.90;;;;;;5036248;28;20059;-60
2021/01/08 04:54:05;;;;;;;24.45;9.50;;;14.40;99.90;;;;;;5035642;28;20073;-60
2021/01/08 04:56:42;;;;;;;25.77;9.02;;;14.30;99.90;;;;;;5034787;28;20442;-60
2021/01/08 04:59:10;;;;;;;22.58;7.35;;;14.30;99.90;;;;;;5035609;28;20108;-60
2021/01/08 05:01:37;;;;;;;21.77;8.38;;;14.30;99.90;;;;;;5034992;28;20048;-60
2021/01/08 05:04:05;;;;;;;28.33;8.75;;;14.40;99.90;;;;;;5034410;28;20038;-60
2021/01/08 05:06:34;;;;;;;38.70;8.60;;;14.30;99.90;;;;;;5034352;28;20046;-60
2021/01/08 05:09:01;;;;;;;28.67;8.95;;;14.40;99.90;;;;;;5035679;28;20509;-60
2021/01/08 05:11:30;;;;;;;29.42;9.30;;;14.40;99.90;;;;;;5034870;28;20099;-60
2021/01/08 05:14:00;;;;;;;38.10;8.48;;;14.40;99.90;;;;;;5035089;28;20045;-59
2021/01/08 05:16:29;;;;;;;27.42;7.95;;;14.40;99.90;;;;;;5035676;28;20128;-60
2021/01/08 05:18:59;;;;;;;28.02;8.02;;;14.30;99.90;;;;;;5035611;28;20103;-59
2021/01/08 05:21:27;;;;;;;26.77;8.23;;;14.30;99.90;;;;;;5035608;28;20514;-60
2021/01/08 05:23:57;;;;;;;20.25;7.20;;;14.30;99.90;;;;;;5035072;28;20042;-60
2021/01/08 05:26:25;;;;;;;34.67;9.27;;;14.30;99.90;;;;;;5035213;28;20057;-60
2021/01/08 05:29:03;;;;;;;30.38;7.93;;;14.20;99.90;;;;;;5035253;28;20054;-60
2021/01/08 05:31:32;;;;;;;21.98;8.07;;;14.20;99.90;;;;;;5035933;28;20057;-60
2021/01/08 05:34:00;;;;;;;20.08;6.22;;;14.30;99.90;;;;;;5034653;28;20495;-60
2021/01/08 05:36:27;;;;;;;32.50;9.00;;;14.30;99.90;;;;;;5035033;28;20053;-60
2021/01/08 05:39:01;;;;;;;21.55;7.25;;;14.30;99.90;;;;;;5034714;28;20057;-60
2021/01/08 05:41:30;;;;;;;27.83;7.72;;;14.30;99.90;;;;;;5017533;28;20053;-57
2021/01/08 05:43:59;;;;;;;34.67;9.65;;;14.30;99.90;;;;;;5033682;28;20045;-57
2021/01/08 05:46:29;;;;;;;26.48;9.90;;;14.30;99.90;;;;;;5034394;28;20057;-57
2021/01/08 05:49:03;;;;;;;20.23;6.47;;;14.30;99.90;;;;;;5033782;28;20564;-57
2021/01/08 05:51:32;;;;;;;24.73;9.15;;;14.30;99.90;;;;;;5035082;28;20049;-57
2021/01/08 05:54:01;;;;;;;22.60;7.25;;;14.30;99.90;;;;;;5033408;28;20488;-57
2021/01/08 05:56:36;;;;;;;27.95;8.40;;;14.30;99.90;;;;;;5035029;28;20049;-57
2021/01/08 05:59:04;;;;;;;24.80;8.20;;;14.20;99.90;;;;;;5033065;28;20132;-57
2021/01/08 06:01:34;;;;;;;23.63;7.18;;;14.20;99.90;;;;;;5034880;28;20134;-58
2021/01/08 06:04:02;;;;;;;19.30;6.45;;;14.30;99.90;;;;;;5034583;28;20045;-60
2021/01/08 06:06:43;;;;;;;23.90;7.32;;;14.30;99.90;;;;;;5034756;28;20506;-59
2021/01/08 06:09:15;;;;;;;28.02;7.15;;;14.20;99.90;;;;;;5034384;28;20045;-59
2021/01/08 06:11:46;;;;;;;18.77;6.45;;;14.20;99.90;;;;;;5033441;28;20080;-59
2021/01/08 06:14:16;;;;;;;20.10;7.18;;;14.20;99.90;;;;;;5034192;28;20042;-59
2021/01/08 06:16:46;;;;;;;31.20;10.20;;;14.20;99.90;;;;;;5033548;28;20049;-59
2021/01/08 06:19:15;;;;;;;30.80;8.02;;;14.30;99.90;;;;;;5032935;28;20447;-60
2021/01/08 06:21:44;;;;;;;29.67;9.57;;;14.20;99.90;;;;;;5034475;28;20065;-59
2021/01/08 06:24:13;;;;;;;25.33;7.82;;;14.20;99.90;;;;;;5032634;28;20064;-59
2021/01/08 06:26:42;;;;;;;21.88;7.95;;;14.20;99.90;;;;;;5034584;28;20053;-59
2021/01/08 06:29:39;;;;;;;27.70;7.75;;;14.20;99.90;;;;;;5032758;28;20041;-60
2021/01/08 06:32:16;;;;;;;32.30;8.13;;;14.30;99.90;;;;;;5026037;28;20133;-59
2021/01/08 06:34:45;;;;;;;21.70;9.02;;;14.20;99.90;;;;;;5032673;28;20049;-59
2021/01/08 06:37:17;;;;;;;29.30;8.32;;;14.30;99.90;;;;;;5033332;28;20073;-59
2021/01/08 06:39:46;;;;;;;22.35;7.25;;;14.40;99.90;;;;;;5033833;28;20056;-60
2021/01/08 06:42:28;;;;;;;14.65;6.35;;;14.40;99.90;;;;;;5034076;28;20046;-60
2021/01/08 06:44:56;;;;;;;24.30;7.70;;;14.40;99.90;;;;;;5033709;28;20050;-59
2021/01/08 06:47:24;;;;;;;26.38;8.00;;;14.50;99.90;;;;;;5032998;28;20132;-59
2021/01/08 06:49:52;;;;;;;34.58;9.85;;;14.50;99.90;;;;;;5016219;28;20099;-59
2021/01/08 06:52:21;;;;;;;27.85;7.22;;;14.60;99.90;;;;;;5033584;28;20100;-60
2021/01/08 06:54:59;;;;;;;30.77;7.45;;;14.70;99.90;;;;;;5033684;28;20054;-59
2021/01/08 06:57:33;;;;;;;25.88;7.93;;;14.90;99.90;;;;;;5031987;28;20056;-60
2021/01/08 07:00:04;;;;;;;25.55;8.05;;;15.00;99.90;;;;;;5033255;28;20092;-60
2021/01/08 07:02:33;;;;;;;21.13;7.95;;;15.00;99.90;;;;;;5033737;28;20060;-59
2021/01/08 07:05:01;;;;;;;38.05;9.63;;;15.10;99.90;;;;;;5032077;28;20049;-60
2021/01/08 07:07:30;;;;;;;23.95;7.45;;;15.20;99.90;;;;;;5033570;28;20048;-60
2021/01/08 07:09:58;;;;;;;14.95;6.38;;;15.30;99.90;;;;;;5032075;28;20187;-59
2021/01/08 07:12:26;;;;;;;20.50;8.50;;;15.40;99.90;;;;;;4999566;28;20049;-60
2021/01/08 07:14:54;;;;;;;34.85;8.77;;;15.50;99.90;;;;;;5015840;28;20057;-60
2021/01/08 07:17:32;;;;;;;32.13;9.63;;;15.80;99.90;;;;;;5033467;28;20451;-60
2021/01/08 07:20:02;;;;;;;23.08;7.13;;;16.10;99.90;;;;;;5032041;28;20438;-60
2021/01/08 07:22:40;;;;;;;29.38;10.68;;;16.30;99.90;;;;;;5032837;28;20060;-57
2021/01/08 07:25:13;;;;;;;21.25;9.88;;;16.80;99.90;;;;;;5033012;28;20052;-57
2021/01/08 07:27:41;;;;;;;26.45;10.00;;;17.00;99.90;;;;;;5012360;28;20491;-60
2021/01/08 07:30:10;;;;;;;29.83;9.38;;;17.40;99.90;;;;;;5030127;28;20062;-59
2021/01/08 07:32:45;;;;;;;25.50;8.02;;;18.10;99.90;;;;;;5032036;28;20132;-59
2021/01/08 07:35:27;;;;;;;22.00;7.32;;;18.60;99.90;;;;;;5015076;28;20053;-59
2021/01/08 07:38:13;;;;;;;30.00;7.43;;;19.50;99.90;;;;;;5032373;28;20049;-59
2021/01/08 07:40:59;;;;;;;29.98;8.57;;;19.70;99.90;;;;;;5028607;28;20409;-59
2021/01/08 07:43:34;;;;;;;15.77;9.02;;;19.90;99.90;;;;;;5014244;28;20099;-59
2021/01/08 07:46:04;;;;;;;22.17;8.80;;;20.20;99.90;;;;;;5018189;28;20042;-59
2021/01/08 07:48:38;;;;;;;16.85;7.18;;;20.90;99.90;;;;;;4980551;28;20297;-59
2021/01/08 07:51:07;;;;;;;24.25;6.22;;;21.10;99.90;;;;;;5016835;28;20097;-59
2021/01/08 07:53:41;;;;;;;22.15;7.55;;;21.10;99.90;;;;;;4980469;28;20053;-59
2021/01/08 07:56:22;;;;;;;23.33;7.65;;;20.60;99.90;;;;;;5017715;28;20050;-59
2021/01/08 07:59:06;;;;;;;21.58;7.00;;;20.30;99.90;;;;;;5016157;28;20054;-59
2021/01/08 08:01:36;;;;;;;17.40;7.15;;;20.40;99.90;;;;;;4998270;28;20122;-59
2021/01/08 08:04:06;;;;;;;17.48;6.35;;;19.80;99.90;;;;;;5027225;28;20092;-59
2021/01/08 08:06:41;;;;;;;24.00;6.90;;;19.50;99.90;;;;;;4997685;28;20511;-59
2021/01/08 08:09:16;;;;;;;21.20;7.00;;;18.90;99.90;;;;;;5013038;28;20050;-60
2021/01/08 08:11:43;;;;;;;24.75;7.25;;;18.80;99.90;;;;;;5026971;28;20053;-59
2021/01/08 08:14:16;;;;;;;33.75;6.75;;;18.80;99.90;;;;;;5007275;28;20059;-59
2021/01/08 08:16:44;;;;;;;20.52;5.82;;;18.40;99.90;;;;;;5032167;28;20076;-59
2021/01/08 08:19:13;;;;;;;14.77;7.07;;;18.60;99.90;;;;;;5032998;28;20037;-59
2021/01/08 08:21:48;;;;;;;21.77;7.72;;;18.40;99.90;;;;;;5027091;28;20085;-59
2021/01/08 08:24:18;;;;;;;25.35;6.63;;;18.30;99.90;;;;;;5024524;28;20045;-60
2021/01/08 08:26:48;;;;;;;23.60;7.35;;;18.10;99.90;;;;;;5015094;28;20059;-59
2021/01/08 08:29:17;;;;;;;15.38;7.07;;;18.20;99.90;;;;;;5015192;28;20070;-59
2021/01/08 08:31:51;;;;;;;20.83;8.05;;;18.30;99.90;;;;;;5008925;28;20045;-59
2021/01/08 08:34:30;;;;;;;17.05;7.28;;;18.30;99.90;;;;;;5006666;28;20041;-58
2021/01/08 08:37:24;;;;;;;20.85;8.18;;;18.40;99.90;;;;;;5016204;28;20050;-59
2021/01/08 08:40:00;;;;;;;21.58;7.75;;;18.60;99.90;;;;;;5031803;28;20053;-59
2021/01/08 08:42:28;;;;;;;20.92;8.40;;;18.70;99.90;;;;;;5002698;28;20050;-58
2021/01/08 08:44:56;;;;;;;25.15;6.82;;;18.90;99.90;;;;;;5007095;28;20053;-59
2021/01/08 08:47:29;;;;;;;14.75;6.82;;;19.00;99.90;;;;;;5037858;28;20053;-59
2021/01/08 08:50:07;;;;;;;15.52;7.55;;;19.20;99.90;;;;;;5026956;28;20054;-59
2021/01/08 08:52:35;;;;;;;21.02;6.28;;;19.30;99.90;;;;;;5038891;28;20046;-59
2021/01/08 08:55:02;;;;;;;24.08;7.30;;;19.40;99.90;;;;;;5032547;28;20507;-58
2021/01/08 08:57:29;;;;;;;30.25;6.53;;;19.50;99.90;;;;;;4986471;28;20046;-58
2021/01/08 08:59:57;;;;;;;18.98;6.93;;;19.30;99.90;;;;;;5024543;28;20057;-58
2021/01/08 09:02:26;;;;;;;21.95;7.68;;;19.30;99.90;;;;;;5037292;28;20107;-59
2021/01/08 09:04:58;;;;;;;20.23;7.10;;;19.50;99.90;;;;;;5032772;28;20136;-58
2021/01/08 09:07:31;;;;;;;17.77;7.18;;;19.40;99.90;;;;;;5003142;28;20104;-59
2021/01/08 09:10:04;;;;;;;21.10;8.45;;;19.20;99.90;;;;;;5024592;28;20042;-58
2021/01/08 09:12:58;;;;;;;28.20;7.57;;;19.00;99.90;;;;;;5037905;28;20049;-59
2021/01/08 09:15:39;;;;;;;23.85;7.60;;;18.90;99.90;;;;;;5013308;28;20049;-58
2021/01/08 09:18:30;;;;;;;19.02;8.63;;;19.10;99.90;;;;;;5018581;28;20085;-58
2021/01/08 09:21:03;;;;;;;28.95;7.25;;;19.10;99.90;;;;;;5025782;28;20049;-59
2021/01/08 09:23:35;;;;;;;20.95;8.27;;;19.10;99.90;;;;;;5016496;28;20132;-58
2021/01/08 09:26:05;;;;;;;18.48;7.25;;;19.10;99.90;;;;;;5020360;28;20053;-58
2021/01/08 09:28:45;;;;;;;17.10;6.95;;;19.20;99.90;;;;;;4998857;28;20061;-59
2021/01/08 09:31:14;;;;;;;25.45;9.98;;;19.30;99.90;;;;;;5020720;28;20384;-58
2021/01/08 09:33:53;;;;;;;18.15;6.43;;;19.40;99.90;;;;;;4999693;28;20044;-58
2021/01/08 09:36:29;;;;;;;24.00;6.65;;;19.30;99.90;;;;;;4992897;28;20045;-59
2021/01/08 09:39:10;;;;;;;17.20;7.35;;;19.30;99.90;;;;;;5013530;28;20069;-58
2021/01/08 09:41:40;;;;;;;22.38;6.85;;;19.30;99.90;;;;;;5016837;28;20046;-58
2021/01/08 09:44:11;;;;;;;25.52;7.32;;;19.40;99.90;;;;;;5017013;28;20049;-58
2021/01/08 09:46:50;;;;;;;20.95;8.00;;;19.40;99.90;;;;;;4993374;28;20053;-58
2021/01/08 09:49:18;;;;;;;17.77;6.65;;;19.40;99.90;;;;;;5034903;28;20057;-59
2021/01/08 09:51:45;;;;;;;27.30;8.95;;;19.20;99.90;;;;;;5035002;28;20050;-58
2021/01/08 09:54:13;;;;;;;24.38;8.23;;;19.00;99.90;;;;;;5033513;28;20053;-58
2021/01/08 09:56:51;;;;;;;27.38;7.47;;;18.80;99.90;;;;;;5033508;28;20381;-58
2021/01/08 09:59:18;;;;;;;20.00;7.28;;;18.60;99.90;;;;;;5034432;28;20077;-58
2021/01/08 10:02:04;;;;;;;19.85;7.05;;;18.20;99.90;;;;;;5035023;28;20104;-59
2021/01/08 10:04:33;;;;;;;24.40;7.43;;;18.10;99.90;;;;;;5034362;28;20144;-59
2021/01/08 10:07:06;;;;;;;24.38;8.23;;;17.90;99.90;;;;;;5017683;28;20063;-59
2021/01/08 10:09:52;;;;;;;17.83;6.82;;;17.90;99.90;;;;;;5034550;28;20077;-59
2021/01/08 10:12:23;;;;;;;20.77;7.77;;;17.90;99.90;;;;;;5034592;28;20057;-59
2021/01/08 10:14:59;;;;;;;17.58;7.22;;;17.90;99.90;;;;;;5033003;28;20375;-59
2021/01/08 10:17:26;;;;;;;22.95;9.10;;;17.90;99.90;;;;;;5033545;28;20053;-59
2021/01/08 10:19:55;;;;;;;22.73;8.15;;;18.00;99.90;;;;;;5034109;28;20468;-59
2021/01/08 10:22:23;;;;;;;23.48;8.90;;;17.90;99.90;;;;;;5034295;28;20451;-60
2021/01/08 10:24:50;;;;;;;19.88;7.45;;;18.10;99.90;;;;;;4996865;28;20129;-58
2021/01/08 10:27:23;;;;;;;20.55;7.28;;;18.40;99.90;;;;;;5031660;28;20045;-58
2021/01/08 10:29:51;;;;;;;16.92;7.22;;;18.60;99.90;;;;;;5032914;28;20077;-58
2021/01/08 10:32:21;;;;;;;28.60;8.52;;;18.80;99.90;;;;;;5033023;28;20443;-58
2021/01/08 10:34:48;;;;;;;18.80;7.20;;;18.80;99.90;;;;;;5032557;28;20048;-58
2021/01/08 10:37:17;;;;;;;22.63;8.52;;;18.80;99.90;;;;;;5034463;28;20045;-58
2021/01/08 10:39:47;;;;;;;24.92;8.38;;;18.80;99.90;;;;;;5032592;28;20128;-58
2021/01/08 10:42:16;;;;;;;21.50;8.73;;;18.60;99.90;;;;;;5033091;28;20049;-59
2021/01/08 10:44:44;;;;;;;22.83;7.82;;;18.50;99.90;;;;;;5015992;28;20049;-59
2021/01/08 10:47:11;;;;;;;16.50;7.95;;;18.40;99.90;;;;;;5016310;28;20507;-58
2021/01/08 10:49:54;;;;;;;21.73;6.95;;;18.40;99.90;;;;;;5016229;28;20099;-58
2021/01/08 10:52:22;;;;;;;18.17;7.18;;;18.30;99.90;;;;;;5016049;28;20403;-58
2021/01/08 10:54:49;;;;;;;23.15;7.85;;;18.20;99.90;;;;;;5033383;28;20449;-58
2021/01/08 10:57:17;;;;;;;22.35;9.00;;;18.20;99.90;;;;;;5016573;28;20573;-58
2021/01/08 10:59:44;;;;;;;22.40;7.85;;;18.10;99.90;;;;;;5033068;28;20049;-58
2021/01/08 11:02:11;;;;;;;22.65;8.40;;;18.10;99.90;;;;;;5033954;28;20046;-58
2021/01/08 11:04:43;;;;;;;19.38;7.45;;;18.10;99.90;;;;;;5031768;28;20049;-58
2021/01/08 11:07:10;;;;;;;21.08;6.68;;;18.10;99.90;;;;;;5033675;28;20045;-58
2021/01/08 11:09:37;;;;;;;18.02;8.27;;;18.10;99.90;;;;;;5033445;28;20042;-58
2021/01/08 11:12:09;;;;;;;19.02;6.70;;;18.30;99.90;;;;;;5032376;28;20045;-58
2021/01/08 11:14:36;;;;;;;10.32;5.47;;;18.30;99.90;;;;;;5031695;28;20060;-58
2021/01/08 11:17:03;;;;;;;15.50;5.55;;;18.40;99.90;;;;;;5033752;28;20076;-58
2021/01/08 11:19:31;;;;;;;20.02;6.90;;;18.40;99.90;;;;;;5015783;28;20514;-59
2021/01/08 11:21:58;;;;;;;16.95;5.97;;;18.40;99.90;;;;;;5033406;28;20049;-59
2021/01/08 11:24:28;;;;;;;23.60;6.32;;;18.40;99.90;;;;;;5032721;28;20103;-59
2021/01/08 11:26:55;;;;;;;17.92;5.93;;;18.40;99.90;;;;;;5033241;28;20072;-59
2021/01/08 11:29:22;;;;;;;23.67;8.25;;;18.30;99.90;;;;;;5031673;28;20053;-59
2021/01/08 11:31:50;;;;;;;15.38;5.70;;;18.30;99.90;;;;;;5033458;28;20049;-59
2021/01/08 11:34:17;;;;;;;21.80;6.95;;;18.30;99.90;;;;;;5014911;28;20059;-60
2021/01/08 11:36:46;;;;;;;16.60;6.95;;;18.30;99.90;;;;;;5032226;28;20049;-59
2021/01/08 11:39:14;;;;;;;21.60;8.25;;;18.30;99.90;;;;;;5031562;28;20053;-59
2021/01/08 11:41:41;;;;;;;17.13;6.75;;;18.30;99.90;;;;;;5020573;28;20602;-59
2021/01/08 11:44:09;;;;;;;20.10;6.93;;;18.30;99.90;;;;;;5017074;28;20038;-59
2021/01/08 11:46:36;;;;;;;15.90;6.60;;;18.30;99.90;;;;;;5023674;28;20091;-59
2021/01/08 11:49:04;;;;;;;21.65;6.50;;;18.30;99.90;;;;;;5026413;28;20045;-59
2021/01/08 11:51:31;;;;;;;31.02;8.50;;;18.30;99.90;;;;;;5021014;28;20046;-59
2021/01/08 11:53:58;;;;;;;24.08;6.47;;;18.10;99.90;;;;;;4998954;28;20044;-59
2021/01/08 11:56:30;;;;;;;16.42;6.55;;;18.10;99.90;;;;;;5023307;28;20140;-59
2021/01/08 11:58:58;;;;;;;21.25;8.15;;;18.10;99.90;;;;;;5027416;28;20073;-59
2021/01/08 12:01:28;;;;;;;18.83;8.10;;;18.10;99.90;;;;;;5003968;28;20104;-59
2021/01/08 12:03:57;;;;;;;15.82;7.10;;;18.10;99.90;;;;;;4998532;28;20511;-59
2021/01/08 12:06:33;;;;;;;18.88;7.32;;;18.00;99.90;;;;;;5023386;28;20401;-59
2021/01/08 12:09:01;;;;;;;20.17;6.57;;;18.00;99.90;;;;;;5009282;28;20045;-59
2021/01/08 12:11:29;;;;;;;17.77;7.78;;;18.00;99.90;;;;;;5003476;28;20475;-59
2021/01/08 12:13:56;;;;;;;17.95;8.38;;;17.90;99.90;;;;;;5015489;28;20056;-59
2021/01/08 12:16:24;;;;;;;24.77;8.05;;;17.80;99.90;;;;;;5005188;28;20144;-59
2021/01/08 12:18:52;;;;;;;20.05;7.10;;;17.70;99.90;;;;;;5010478;28;20048;-59
2021/01/08 12:21:22;;;;;;;22.33;7.63;;;17.70;99.90;;;;;;5021105;28;20046;-59
2021/01/08 12:23:52;;;;;;;15.15;6.43;;;17.60;99.90;;;;;;5015650;28;20399;-59
2021/01/08 12:26:21;;;;;;;16.88;7.68;;;17.60;99.90;;;;;;5005221;28;20084;-58
2021/01/08 12:28:49;;;;;;;18.73;7.05;;;17.60;99.90;;;;;;5028481;28;20069;-59
2021/01/08 12:31:23;;;;;;;20.83;8.02;;;17.70;99.90;;;;;;5020913;28;20407;-59
2021/01/08 12:33:52;;;;;;;21.15;7.60;;;17.70;99.90;;;;;;4997981;28;20071;-56
2021/01/08 12:36:21;;;;;;;21.63;7.88;;;17.70;99.90;;;;;;5023075;28;20115;-59
2021/01/08 12:38:49;;;;;;;20.83;8.55;;;17.80;99.90;;;;;;5028455;28;20041;-59
2021/01/08 12:41:17;;;;;;;17.80;6.47;;;17.80;99.90;;;;;;5020963;28;20404;-59
2021/01/08 12:43:45;;;;;;;18.48;9.23;;;17.90;99.90;;;;;;5014121;28;20041;-59
2021/01/08 12:46:13;;;;;;;19.95;7.50;;;17.90;99.90;;;;;;5022994;28;20050;-59
2021/01/08 12:48:40;;;;;;;19.35;7.05;;;17.90;99.90;;;;;;5029120;28;20180;-59
2021/01/08 12:51:09;;;;;;;19.17;6.75;;;17.90;99.90;;;;;;5020983;28;20052;-58